sensor_id;sensor_type;location;lat;lon;timestamp;temperature;humidity
78315;SHT31;68596;52.080;4.662;2023-04-03T00:01:50;6.74;66.37
78315;SHT31;68596;52.080;4.662;2023-04-03T00:04:34;6.74;66.67
78315;SHT31;68596;52.080;4.662;2023-04-03T00:07:18;6.70;66.01
78315;SHT31;68596;52.080;4.662;2023-04-03T00:10:02;6.67;66.70
78315;SHT31;68596;52.080;4.662;2023-04-03T00:12:47;6.68;66.72
78315;SHT31;68596;52.080;4.662;2023-04-03T00:15:31;6.66;66.86
78315;SHT31;68596;52.080;4.662;2023-04-03T00:18:15;6.68;66.41
78315;SHT31;68596;52.080;4.662;2023-04-03T00:20:59;6.63;66.02
78315;SHT31;68596;52.080;4.662;2023-04-03T00:23:43;6.61;66.25
78315;SHT31;68596;52.080;4.662;2023-04-03T00:26:28;6.61;66.87
78315;SHT31;68596;52.080;4.662;2023-04-03T00:29:12;6.57;66.44
78315;SHT31;68596;52.080;4.662;2023-04-03T00:31:56;6.56;66.54
78315;SHT31;68596;52.080;4.662;2023-04-03T00:34:40;6.53;66.64
78315;SHT31;68596;52.080;4.662;2023-04-03T00:37:24;6.54;65.65
78315;SHT31;68596;52.080;4.662;2023-04-03T00:40:09;6.50;66.33
78315;SHT31;68596;52.080;4.662;2023-04-03T00:42:59;6.51;66.53
78315;SHT31;68596;52.080;4.662;2023-04-03T00:45:46;6.48;66.32
78315;SHT31;68596;52.080;4.662;2023-04-03T00:48:35;6.48;65.53
78315;SHT31;68596;52.080;4.662;2023-04-03T00:51:24;6.46;66.11
78315;SHT31;68596;52.080;4.662;2023-04-03T00:54:09;6.38;65.75
78315;SHT31;68596;52.080;4.662;2023-04-03T00:56:56;6.41;66.96
78315;SHT31;68596;52.080;4.662;2023-04-03T00:59:46;6.40;66.14
78315;SHT31;68596;52.080;4.662;2023-04-03T01:02:32;6.34;66.64
78315;SHT31;68596;52.080;4.662;2023-04-03T01:05:19;6.38;66.28
78315;SHT31;68596;52.080;4.662;2023-04-03T01:08:04;6.34;66.66
78315;SHT31;68596;52.080;4.662;2023-04-03T01:10:49;6.36;66.63
78315;SHT31;68596;52.080;4.662;2023-04-03T01:13:34;6.37;66.50
78315;SHT31;68596;52.080;4.662;2023-04-03T01:16:21;6.32;66.41
78315;SHT31;68596;52.080;4.662;2023-04-03T01:19:11;6.24;66.95
78315;SHT31;68596;52.080;4.662;2023-04-03T01:22:15;6.24;67.24
78315;SHT31;68596;52.080;4.662;2023-04-03T01:25:04;6.24;66.41
78315;SHT31;68596;52.080;4.662;2023-04-03T01:27:48;6.17;66.23
78315;SHT31;68596;52.080;4.662;2023-04-03T01:30:56;6.12;66.26
78315;SHT31;68596;52.080;4.662;2023-04-03T01:33:42;6.05;66.30
78315;SHT31;68596;52.080;4.662;2023-04-03T01:36:30;6.09;67.17
78315;SHT31;68596;52.080;4.662;2023-04-03T01:39:15;6.03;66.92
78315;SHT31;68596;52.080;4.662;2023-04-03T01:41:59;6.02;66.93
78315;SHT31;68596;52.080;4.662;2023-04-03T01:44:43;6.01;66.42
78315;SHT31;68596;52.080;4.662;2023-04-03T01:47:28;5.96;66.83
78315;SHT31;68596;52.080;4.662;2023-04-03T01:50:12;5.91;66.37
78315;SHT31;68596;52.080;4.662;2023-04-03T01:52:56;5.85;67.05
78315;SHT31;68596;52.080;4.662;2023-04-03T01:55:40;5.85;67.34
78315;SHT31;68596;52.080;4.662;2023-04-03T01:58:24;5.85;67.08
78315;SHT31;68596;52.080;4.662;2023-04-03T02:01:08;5.83;66.99
78315;SHT31;68596;52.080;4.662;2023-04-03T02:03:52;5.83;67.05
78315;SHT31;68596;52.080;4.662;2023-04-03T02:06:36;5.79;66.90
78315;SHT31;68596;52.080;4.662;2023-04-03T02:09:20;5.76;67.31
78315;SHT31;68596;52.080;4.662;2023-04-03T02:12:04;5.73;66.96
78315;SHT31;68596;52.080;4.662;2023-04-03T02:14:49;5.75;67.03
78315;SHT31;68596;52.080;4.662;2023-04-03T02:17:34;5.76;66.92
78315;SHT31;68596;52.080;4.662;2023-04-03T02:20:19;5.73;67.16
78315;SHT31;68596;52.080;4.662;2023-04-03T02:23:03;5.68;67.01
78315;SHT31;68596;52.080;4.662;2023-04-03T02:25:47;5.66;66.86
78315;SHT31;68596;52.080;4.662;2023-04-03T02:28:33;5.66;67.92
78315;SHT31;68596;52.080;4.662;2023-04-03T02:31:17;5.61;67.82
78315;SHT31;68596;52.080;4.662;2023-04-03T02:34:01;5.63;67.91
78315;SHT31;68596;52.080;4.662;2023-04-03T02:36:45;5.58;68.09
78315;SHT31;68596;52.080;4.662;2023-04-03T02:39:30;5.65;67.27
78315;SHT31;68596;52.080;4.662;2023-04-03T02:42:14;5.65;68.15
78315;SHT31;68596;52.080;4.662;2023-04-03T02:44:58;5.69;67.91
78315;SHT31;68596;52.080;4.662;2023-04-03T02:47:44;5.66;67.78
78315;SHT31;68596;52.080;4.662;2023-04-03T02:50:28;5.58;67.13
78315;SHT31;68596;52.080;4.662;2023-04-03T02:53:12;5.59;67.55
78315;SHT31;68596;52.080;4.662;2023-04-03T02:55:56;5.55;68.02
78315;SHT31;68596;52.080;4.662;2023-04-03T02:58:40;5.55;67.96
78315;SHT31;68596;52.080;4.662;2023-04-03T03:01:24;5.52;68.28
78315;SHT31;68596;52.080;4.662;2023-04-03T03:04:10;5.52;67.90
78315;SHT31;68596;52.080;4.662;2023-04-03T03:06:54;5.52;68.35
78315;SHT31;68596;52.080;4.662;2023-04-03T03:09:38;5.48;68.21
78315;SHT31;68596;52.080;4.662;2023-04-03T03:12:23;5.44;68.23
78315;SHT31;68596;52.080;4.662;2023-04-03T03:15:08;5.45;68.65
78315;SHT31;68596;52.080;4.662;2023-04-03T03:17:53;5.41;68.63
78315;SHT31;68596;52.080;4.662;2023-04-03T03:20:37;5.40;68.72
78315;SHT31;68596;52.080;4.662;2023-04-03T03:23:22;5.35;68.90
78315;SHT31;68596;52.080;4.662;2023-04-03T03:26:09;5.34;69.32
78315;SHT31;68596;52.080;4.662;2023-04-03T03:28:54;5.30;69.26
78315;SHT31;68596;52.080;4.662;2023-04-03T03:31:38;5.26;69.20
78315;SHT31;68596;52.080;4.662;2023-04-03T03:34:22;5.24;69.11
78315;SHT31;68596;52.080;4.662;2023-04-03T03:37:06;5.18;69.37
78315;SHT31;68596;52.080;4.662;2023-04-03T03:39:50;5.20;69.19
78315;SHT31;68596;52.080;4.662;2023-04-03T03:42:34;5.17;69.27
78315;SHT31;68596;52.080;4.662;2023-04-03T03:45:18;5.13;69.09
78315;SHT31;68596;52.080;4.662;2023-04-03T03:48:03;5.11;69.37
78315;SHT31;68596;52.080;4.662;2023-04-03T03:50:47;5.10;69.30
78315;SHT31;68596;52.080;4.662;2023-04-03T03:53:32;5.13;69.56
78315;SHT31;68596;52.080;4.662;2023-04-03T03:56:16;5.11;69.60
78315;SHT31;68596;52.080;4.662;2023-04-03T03:59:00;5.08;69.51
78315;SHT31;68596;52.080;4.662;2023-04-03T04:01:44;5.08;69.53
78315;SHT31;68596;52.080;4.662;2023-04-03T04:04:28;5.07;69.29
78315;SHT31;68596;52.080;4.662;2023-04-03T04:07:12;5.00;69.56
78315;SHT31;68596;52.080;4.662;2023-04-03T04:09:56;4.96;69.64
78315;SHT31;68596;52.080;4.662;2023-04-03T04:12:40;4.97;69.69
78315;SHT31;68596;52.080;4.662;2023-04-03T04:15:24;4.96;69.80
78315;SHT31;68596;52.080;4.662;2023-04-03T04:18:09;4.91;69.93
78315;SHT31;68596;52.080;4.662;2023-04-03T04:20:54;4.90;70.23
78315;SHT31;68596;52.080;4.662;2023-04-03T04:23:38;4.93;70.05
78315;SHT31;68596;52.080;4.662;2023-04-03T04:26:22;4.94;69.94
78315;SHT31;68596;52.080;4.662;2023-04-03T04:29:06;4.91;70.19
78315;SHT31;68596;52.080;4.662;2023-04-03T04:31:50;4.91;69.85
78315;SHT31;68596;52.080;4.662;2023-04-03T04:34:34;4.87;70.09
78315;SHT31;68596;52.080;4.662;2023-04-03T04:37:19;4.83;70.13
78315;SHT31;68596;52.080;4.662;2023-04-03T04:40:03;4.81;70.26
78315;SHT31;68596;52.080;4.662;2023-04-03T04:42:47;4.84;70.23
78315;SHT31;68596;52.080;4.662;2023-04-03T04:45:31;4.80;70.37
78315;SHT31;68596;52.080;4.662;2023-04-03T04:48:15;4.86;70.35
78315;SHT31;68596;52.080;4.662;2023-04-03T04:50:59;4.81;70.15
78315;SHT31;68596;52.080;4.662;2023-04-03T04:53:44;4.79;70.21
78315;SHT31;68596;52.080;4.662;2023-04-03T04:56:28;4.80;70.45
78315;SHT31;68596;52.080;4.662;2023-04-03T04:59:12;4.81;70.43
78315;SHT31;68596;52.080;4.662;2023-04-03T05:01:56;4.81;70.26
78315;SHT31;68596;52.080;4.662;2023-04-03T05:04:40;4.81;70.58
78315;SHT31;68596;52.080;4.662;2023-04-03T05:07:27;4.81;70.52
78315;SHT31;68596;52.080;4.662;2023-04-03T05:10:11;4.81;70.63
78315;SHT31;68596;52.080;4.662;2023-04-03T05:12:55;4.80;70.56
78315;SHT31;68596;52.080;4.662;2023-04-03T05:15:39;4.72;70.82
78315;SHT31;68596;52.080;4.662;2023-04-03T05:18:23;4.73;70.80
78315;SHT31;68596;52.080;4.662;2023-04-03T05:21:07;4.72;71.00
78315;SHT31;68596;52.080;4.662;2023-04-03T05:23:52;4.77;70.98
78315;SHT31;68596;52.080;4.662;2023-04-03T05:26:36;4.83;70.58
78315;SHT31;68596;52.080;4.662;2023-04-03T05:29:21;4.90;70.52
78315;SHT31;68596;52.080;4.662;2023-04-03T05:32:05;5.03;69.77
78315;SHT31;68596;52.080;4.662;2023-04-03T05:34:49;5.24;69.27
78315;SHT31;68596;52.080;4.662;2023-04-03T05:37:33;5.38;68.73
78315;SHT31;68596;52.080;4.662;2023-04-03T05:40:18;5.55;68.53
78315;SHT31;68596;52.080;4.662;2023-04-03T05:43:02;5.93;67.43
78315;SHT31;68596;52.080;4.662;2023-04-03T05:45:47;6.37;65.50
78315;SHT31;68596;52.080;4.662;2023-04-03T05:48:31;6.91;64.72
78315;SHT31;68596;52.080;4.662;2023-04-03T05:51:22;7.39;62.93
78315;SHT31;68596;52.080;4.662;2023-04-03T05:54:19;7.79;61.36
78315;SHT31;68596;52.080;4.662;2023-04-03T05:57:06;8.24;60.76
78315;SHT31;68596;52.080;4.662;2023-04-03T05:59:50;8.58;59.08
78315;SHT31;68596;52.080;4.662;2023-04-03T06:02:35;8.54;59.00
78315;SHT31;68596;52.080;4.662;2023-04-03T06:05:19;8.14;60.40
78315;SHT31;68596;52.080;4.662;2023-04-03T06:08:03;8.56;59.89
78315;SHT31;68596;52.080;4.662;2023-04-03T06:10:47;9.07;58.10
78315;SHT31;68596;52.080;4.662;2023-04-03T06:13:32;9.58;57.22
78315;SHT31;68596;52.080;4.662;2023-04-03T06:16:17;9.97;55.56
78315;SHT31;68596;52.080;4.662;2023-04-03T06:19:01;10.35;54.62
78315;SHT31;68596;52.080;4.662;2023-04-03T06:21:46;10.56;54.47
78315;SHT31;68596;52.080;4.662;2023-04-03T06:24:31;10.76;54.27
78315;SHT31;68596;52.080;4.662;2023-04-03T06:27:15;10.94;53.29
78315;SHT31;68596;52.080;4.662;2023-04-03T06:30:00;11.13;53.48
78315;SHT31;68596;52.080;4.662;2023-04-03T06:32:45;11.21;52.56
78315;SHT31;68596;52.080;4.662;2023-04-03T06:35:29;11.39;53.08
78315;SHT31;68596;52.080;4.662;2023-04-03T06:38:13;11.59;52.62
78315;SHT31;68596;52.080;4.662;2023-04-03T06:40:58;11.76;51.81
78315;SHT31;68596;52.080;4.662;2023-04-03T06:43:43;11.86;52.42
78315;SHT31;68596;52.080;4.662;2023-04-03T06:46:27;12.10;52.13
78315;SHT31;68596;52.080;4.662;2023-04-03T06:49:11;11.52;52.66
78315;SHT31;68596;52.080;4.662;2023-04-03T06:51:55;10.97;53.97
78315;SHT31;68596;52.080;4.662;2023-04-03T06:54:40;10.41;55.83
78315;SHT31;68596;52.080;4.662;2023-04-03T06:57:25;10.19;56.68
78315;SHT31;68596;52.080;4.662;2023-04-03T07:00:10;9.48;58.69
78315;SHT31;68596;52.080;4.662;2023-04-03T07:02:55;8.99;60.64
78315;SHT31;68596;52.080;4.662;2023-04-03T07:05:40;8.92;59.98
78315;SHT31;68596;52.080;4.662;2023-04-03T07:08:26;8.93;60.53
78315;SHT31;68596;52.080;4.662;2023-04-03T07:11:12;9.06;60.45
78315;SHT31;68596;52.080;4.662;2023-04-03T07:13:56;8.83;60.93
78315;SHT31;68596;52.080;4.662;2023-04-03T07:16:40;8.73;60.82
78315;SHT31;68596;52.080;4.662;2023-04-03T07:19:24;8.75;61.26
78315;SHT31;68596;52.080;4.662;2023-04-03T07:22:11;9.15;60.29
78315;SHT31;68596;52.080;4.662;2023-04-03T07:24:56;9.46;59.09
78315;SHT31;68596;52.080;4.662;2023-04-03T07:27:40;9.39;59.41
78315;SHT31;68596;52.080;4.662;2023-04-03T07:30:24;8.89;58.95
78315;SHT31;68596;52.080;4.662;2023-04-03T07:33:09;9.12;60.84
78315;SHT31;68596;52.080;4.662;2023-04-03T07:35:53;9.41;57.84
78315;SHT31;68596;52.080;4.662;2023-04-03T07:38:37;9.22;59.48
78315;SHT31;68596;52.080;4.662;2023-04-03T07:41:21;8.99;60.38
78315;SHT31;68596;52.080;4.662;2023-04-03T07:44:06;8.86;60.00
78315;SHT31;68596;52.080;4.662;2023-04-03T07:46:54;8.86;61.89
78315;SHT31;68596;52.080;4.662;2023-04-03T07:49:41;8.82;60.93
78315;SHT31;68596;52.080;4.662;2023-04-03T07:52:25;8.66;61.62
78315;SHT31;68596;52.080;4.662;2023-04-03T07:55:09;8.56;61.46
78315;SHT31;68596;52.080;4.662;2023-04-03T07:57:54;8.49;61.18
78315;SHT31;68596;52.080;4.662;2023-04-03T08:00:39;8.48;61.78
78315;SHT31;68596;52.080;4.662;2023-04-03T08:03:24;8.38;62.15
78315;SHT31;68596;52.080;4.662;2023-04-03T08:06:09;8.40;62.26
78315;SHT31;68596;52.080;4.662;2023-04-03T08:08:54;8.48;61.22
78315;SHT31;68596;52.080;4.662;2023-04-03T08:11:39;8.33;61.46
78315;SHT31;68596;52.080;4.662;2023-04-03T08:14:23;8.33;61.52
78315;SHT31;68596;52.080;4.662;2023-04-03T08:17:09;8.28;61.97
78315;SHT31;68596;52.080;4.662;2023-04-03T08:19:55;8.35;61.94
78315;SHT31;68596;52.080;4.662;2023-04-03T08:22:39;8.58;62.03
78315;SHT31;68596;52.080;4.662;2023-04-03T08:25:24;8.62;60.45
78315;SHT31;68596;52.080;4.662;2023-04-03T08:28:10;8.69;59.86
78315;SHT31;68596;52.080;4.662;2023-04-03T08:30:55;8.86;59.86
78315;SHT31;68596;52.080;4.662;2023-04-03T08:33:40;9.02;59.72
78315;SHT31;68596;52.080;4.662;2023-04-03T08:36:26;8.99;59.55
78315;SHT31;68596;52.080;4.662;2023-04-03T08:39:12;9.06;59.23
78315;SHT31;68596;52.080;4.662;2023-04-03T08:41:59;9.23;59.41
78315;SHT31;68596;52.080;4.662;2023-04-03T08:44:59;9.41;57.97
78315;SHT31;68596;52.080;4.662;2023-04-03T08:47:55;9.58;57.62
78315;SHT31;68596;52.080;4.662;2023-04-03T08:50:43;9.57;57.97
78315;SHT31;68596;52.080;4.662;2023-04-03T08:53:33;9.57;55.72
78315;SHT31;68596;52.080;4.662;2023-04-03T08:56:18;9.80;54.07
78315;SHT31;68596;52.080;4.662;2023-04-03T08:59:13;10.21;55.09
78315;SHT31;68596;52.080;4.662;2023-04-03T09:02:05;10.29;53.68
78315;SHT31;68596;52.080;4.662;2023-04-03T09:04:56;10.23;52.61
78315;SHT31;68596;52.080;4.662;2023-04-03T09:08:00;10.25;53.55
78315;SHT31;68596;52.080;4.662;2023-04-03T09:10:48;10.15;51.56
78315;SHT31;68596;52.080;4.662;2023-04-03T09:16:48;9.75;53.22
78315;SHT31;68596;52.080;4.662;2023-04-03T09:22:24;9.80;48.28
78315;SHT31;68596;52.080;4.662;2023-04-03T09:25:32;9.75;50.45
78315;SHT31;68596;52.080;4.662;2023-04-03T09:28:17;9.52;44.98
78315;SHT31;68596;52.080;4.662;2023-04-03T09:31:02;9.44;47.20
78315;SHT31;68596;52.080;4.662;2023-04-03T09:33:56;9.29;43.40
78315;SHT31;68596;52.080;4.662;2023-04-03T09:36:46;9.29;44.65
78315;SHT31;68596;52.080;4.662;2023-04-03T09:39:33;9.05;42.77
78315;SHT31;68596;52.080;4.662;2023-04-03T09:42:32;9.24;43.71
78315;SHT31;68596;52.080;4.662;2023-04-03T09:45:27;9.37;45.24
78315;SHT31;68596;52.080;4.662;2023-04-03T09:51:01;9.51;42.25
78315;SHT31;68596;52.080;4.662;2023-04-03T09:53:46;9.47;41.19
78315;SHT31;68596;52.080;4.662;2023-04-03T09:56:31;9.50;42.33
78315;SHT31;68596;52.080;4.662;2023-04-03T09:59:16;9.67;42.63
78315;SHT31;68596;52.080;4.662;2023-04-03T10:11:16;9.73;38.38
78315;SHT31;68596;52.080;4.662;2023-04-03T10:14:02;9.47;37.91
78315;SHT31;68596;52.080;4.662;2023-04-03T10:16:59;9.55;38.73
78315;SHT31;68596;52.080;4.662;2023-04-03T10:20:00;9.57;39.40
78315;SHT31;68596;52.080;4.662;2023-04-03T10:26:17;9.61;37.63
78315;SHT31;68596;52.080;4.662;2023-04-03T10:32:45;9.98;35.20
78315;SHT31;68596;52.080;4.662;2023-04-03T10:35:44;9.82;36.46
78315;SHT31;68596;52.080;4.662;2023-04-03T10:56:23;9.81;38.23
78315;SHT31;68596;52.080;4.662;2023-04-03T11:05:47;9.85;40.72
78315;SHT31;68596;52.080;4.662;2023-04-03T11:08:21;10.03;40.71
78315;SHT31;68596;52.080;4.662;2023-04-03T11:11:12;10.11;38.21
78315;SHT31;68596;52.080;4.662;2023-04-03T11:13:58;9.87;37.05
78315;SHT31;68596;52.080;4.662;2023-04-03T11:16:59;9.92;37.91
78315;SHT31;68596;52.080;4.662;2023-04-03T11:20:17;9.85;37.68
78315;SHT31;68596;52.080;4.662;2023-04-03T11:23:08;9.95;38.00
78315;SHT31;68596;52.080;4.662;2023-04-03T11:26:08;9.98;37.83
78315;SHT31;68596;52.080;4.662;2023-04-03T11:28:58;10.05;39.98
78315;SHT31;68596;52.080;4.662;2023-04-03T11:32:20;10.15;37.52
78315;SHT31;68596;52.080;4.662;2023-04-03T11:35:12;10.28;37.12
78315;SHT31;68596;52.080;4.662;2023-04-03T11:37:59;10.35;35.16
78315;SHT31;68596;52.080;4.662;2023-04-03T11:40:47;10.26;33.72
78315;SHT31;68596;52.080;4.662;2023-04-03T11:43:33;10.11;35.98
78315;SHT31;68596;52.080;4.662;2023-04-03T11:46:57;10.13;36.36
78315;SHT31;68596;52.080;4.662;2023-04-03T12:01:09;10.18;35.61
78315;SHT31;68596;52.080;4.662;2023-04-03T12:04:04;10.26;35.22
78315;SHT31;68596;52.080;4.662;2023-04-03T12:06:51;10.32;38.51
78315;SHT31;68596;52.080;4.662;2023-04-03T12:12:39;10.21;33.81
78315;SHT31;68596;52.080;4.662;2023-04-03T12:15:47;10.09;33.41
78315;SHT31;68596;52.080;4.662;2023-04-03T12:18:46;10.03;34.38
78315;SHT31;68596;52.080;4.662;2023-04-03T12:24:33;10.05;34.14
78315;SHT31;68596;52.080;4.662;2023-04-03T12:27:38;9.98;35.52
78315;SHT31;68596;52.080;4.662;2023-04-03T12:30:29;10.05;37.22
78315;SHT31;68596;52.080;4.662;2023-04-03T12:34:09;10.21;36.58
78315;SHT31;68596;52.080;4.662;2023-04-03T12:36:59;10.25;38.32
78315;SHT31;68596;52.080;4.662;2023-04-03T12:45:56;10.08;34.42
78315;SHT31;68596;52.080;4.662;2023-04-03T12:51:40;10.13;37.19
78315;SHT31;68596;52.080;4.662;2023-04-03T12:54:41;10.18;37.50
78315;SHT31;68596;52.080;4.662;2023-04-03T12:57:26;10.33;38.17
78315;SHT31;68596;52.080;4.662;2023-04-03T13:03:23;10.53;38.18
78315;SHT31;68596;52.080;4.662;2023-04-03T13:06:18;10.55;37.52
78315;SHT31;68596;52.080;4.662;2023-04-03T13:09:03;10.55;38.90
78315;SHT31;68596;52.080;4.662;2023-04-03T13:11:50;10.50;39.28
78315;SHT31;68596;52.080;4.662;2023-04-03T13:14:36;10.45;37.46
78315;SHT31;68596;52.080;4.662;2023-04-03T13:17:20;10.45;38.44
78315;SHT31;68596;52.080;4.662;2023-04-03T13:20:24;10.45;38.47
78315;SHT31;68596;52.080;4.662;2023-04-03T13:23:13;10.28;35.44
78315;SHT31;68596;52.080;4.662;2023-04-03T13:26:03;10.35;38.15
78315;SHT31;68596;52.080;4.662;2023-04-03T13:28:49;10.36;37.72
78315;SHT31;68596;52.080;4.662;2023-04-03T13:31:36;10.41;37.92
78315;SHT31;68596;52.080;4.662;2023-04-03T13:34:23;10.42;37.39
78315;SHT31;68596;52.080;4.662;2023-04-03T13:37:28;10.55;38.54
78315;SHT31;68596;52.080;4.662;2023-04-03T13:40:12;10.38;37.03
78315;SHT31;68596;52.080;4.662;2023-04-03T13:43:06;10.22;36.30
78315;SHT31;68596;52.080;4.662;2023-04-03T13:45:58;10.15;35.94
78315;SHT31;68596;52.080;4.662;2023-04-03T13:48:50;10.25;38.52
78315;SHT31;68596;52.080;4.662;2023-04-03T13:51:38;10.49;39.73
78315;SHT31;68596;52.080;4.662;2023-04-03T13:54:29;10.38;36.84
78315;SHT31;68596;52.080;4.662;2023-04-03T13:57:16;10.49;37.34
78315;SHT31;68596;52.080;4.662;2023-04-03T14:00:20;10.48;38.09
78315;SHT31;68596;52.080;4.662;2023-04-03T14:03:26;10.42;38.60
78315;SHT31;68596;52.080;4.662;2023-04-03T14:06:16;10.55;35.98
78315;SHT31;68596;52.080;4.662;2023-04-03T14:09:00;10.64;38.55
78315;SHT31;68596;52.080;4.662;2023-04-03T14:11:46;10.79;37.84
78315;SHT31;68596;52.080;4.662;2023-04-03T14:14:34;10.83;38.64
78315;SHT31;68596;52.080;4.662;2023-04-03T14:17:23;10.70;37.27
78315;SHT31;68596;52.080;4.662;2023-04-03T14:20:14;10.72;39.62
78315;SHT31;68596;52.080;4.662;2023-04-03T14:22:59;10.77;38.91
78315;SHT31;68596;52.080;4.662;2023-04-03T14:25:44;10.76;38.73
78315;SHT31;68596;52.080;4.662;2023-04-03T14:28:28;10.67;38.81
78315;SHT31;68596;52.080;4.662;2023-04-03T14:31:14;10.66;36.39
78315;SHT31;68596;52.080;4.662;2023-04-03T14:33:58;10.67;39.88
78315;SHT31;68596;52.080;4.662;2023-04-03T14:36:44;10.69;39.14
78315;SHT31;68596;52.080;4.662;2023-04-03T14:39:28;10.69;39.46
78315;SHT31;68596;52.080;4.662;2023-04-03T14:42:17;10.69;39.22
78315;SHT31;68596;52.080;4.662;2023-04-03T14:45:06;10.69;39.34
78315;SHT31;68596;52.080;4.662;2023-04-03T14:47:54;10.73;41.06
78315;SHT31;68596;52.080;4.662;2023-04-03T14:50:38;10.76;39.45
78315;SHT31;68596;52.080;4.662;2023-04-03T14:53:22;10.81;41.25
78315;SHT31;68596;52.080;4.662;2023-04-03T14:56:29;10.80;39.53
78315;SHT31;68596;52.080;4.662;2023-04-03T14:59:14;10.80;40.41
78315;SHT31;68596;52.080;4.662;2023-04-03T15:01:59;10.74;37.29
78315;SHT31;68596;52.080;4.662;2023-04-03T15:04:43;10.72;40.83
78315;SHT31;68596;52.080;4.662;2023-04-03T15:07:29;10.76;40.54
78315;SHT31;68596;52.080;4.662;2023-04-03T15:10:26;10.69;39.27
78315;SHT31;68596;52.080;4.662;2023-04-03T15:13:12;10.73;40.37
78315;SHT31;68596;52.080;4.662;2023-04-03T15:15:57;10.69;40.24
78315;SHT31;68596;52.080;4.662;2023-04-03T15:18:42;10.70;39.30
78315;SHT31;68596;52.080;4.662;2023-04-03T15:21:26;10.74;38.56
78315;SHT31;68596;52.080;4.662;2023-04-03T15:24:11;10.73;37.79
78315;SHT31;68596;52.080;4.662;2023-04-03T15:26:55;10.80;41.35
78315;SHT31;68596;52.080;4.662;2023-04-03T15:29:41;10.74;42.10
78315;SHT31;68596;52.080;4.662;2023-04-03T15:32:25;10.66;40.02
78315;SHT31;68596;52.080;4.662;2023-04-03T15:35:10;10.64;41.16
78315;SHT31;68596;52.080;4.662;2023-04-03T15:37:54;10.66;40.17
78315;SHT31;68596;52.080;4.662;2023-04-03T15:40:39;10.63;39.79
78315;SHT31;68596;52.080;4.662;2023-04-03T15:43:23;10.59;41.16
78315;SHT31;68596;52.080;4.662;2023-04-03T15:46:07;10.59;42.41
78315;SHT31;68596;52.080;4.662;2023-04-03T15:48:52;10.56;41.25
78315;SHT31;68596;52.080;4.662;2023-04-03T15:51:36;10.62;38.98
78315;SHT31;68596;52.080;4.662;2023-04-03T15:54:20;10.57;41.06
78315;SHT31;68596;52.080;4.662;2023-04-03T15:57:04;10.53;41.14
78315;SHT31;68596;52.080;4.662;2023-04-03T15:59:49;10.55;39.95
78315;SHT31;68596;52.080;4.662;2023-04-03T16:02:33;10.50;39.45
78315;SHT31;68596;52.080;4.662;2023-04-03T16:05:19;10.59;40.89
78315;SHT31;68596;52.080;4.662;2023-04-03T16:08:05;10.53;40.02
78315;SHT31;68596;52.080;4.662;2023-04-03T16:10:51;10.52;41.41
78315;SHT31;68596;52.080;4.662;2023-04-03T16:13:35;10.46;42.07
78315;SHT31;68596;52.080;4.662;2023-04-03T16:16:20;10.45;41.84
78315;SHT31;68596;52.080;4.662;2023-04-03T16:19:05;10.49;43.43
78315;SHT31;68596;52.080;4.662;2023-04-03T16:21:49;10.43;42.69
78315;SHT31;68596;52.080;4.662;2023-04-03T16:24:34;10.36;43.90
78315;SHT31;68596;52.080;4.662;2023-04-03T16:27:20;10.42;43.80
78315;SHT31;68596;52.080;4.662;2023-04-03T16:30:05;10.43;42.42
78315;SHT31;68596;52.080;4.662;2023-04-03T16:32:50;10.43;43.21
78315;SHT31;68596;52.080;4.662;2023-04-03T16:35:34;10.46;44.65
78315;SHT31;68596;52.080;4.662;2023-04-03T16:38:19;10.46;44.05
78315;SHT31;68596;52.080;4.662;2023-04-03T16:41:03;10.38;43.51
78315;SHT31;68596;52.080;4.662;2023-04-03T16:43:48;10.31;44.26
78315;SHT31;68596;52.080;4.662;2023-04-03T16:46:33;10.22;44.22
78315;SHT31;68596;52.080;4.662;2023-04-03T16:49:17;10.23;44.56
78315;SHT31;68596;52.080;4.662;2023-04-03T16:52:03;10.15;42.94
78315;SHT31;68596;52.080;4.662;2023-04-03T16:54:48;10.13;44.06
78315;SHT31;68596;52.080;4.662;2023-04-03T16:57:33;10.08;44.96
78315;SHT31;68596;52.080;4.662;2023-04-03T17:00:17;10.05;44.54
78315;SHT31;68596;52.080;4.662;2023-04-03T17:03:01;10.02;44.09
78315;SHT31;68596;52.080;4.662;2023-04-03T17:05:49;10.03;45.27
78315;SHT31;68596;52.080;4.662;2023-04-03T17:08:34;10.06;45.84
78315;SHT31;68596;52.080;4.662;2023-04-03T17:11:19;10.02;43.53
78315;SHT31;68596;52.080;4.662;2023-04-03T17:14:05;9.97;45.29
78315;SHT31;68596;52.080;4.662;2023-04-03T17:16:50;9.98;45.67
78315;SHT31;68596;52.080;4.662;2023-04-03T17:19:36;9.92;45.56
78315;SHT31;68596;52.080;4.662;2023-04-03T17:22:21;9.87;45.77
78315;SHT31;68596;52.080;4.662;2023-04-03T17:25:05;9.88;47.21
78315;SHT31;68596;52.080;4.662;2023-04-03T17:27:50;9.85;45.87
78315;SHT31;68596;52.080;4.662;2023-04-03T17:30:34;9.77;46.25
78315;SHT31;68596;52.080;4.662;2023-04-03T17:33:18;9.77;47.56
78315;SHT31;68596;52.080;4.662;2023-04-03T17:36:03;9.74;47.96
78315;SHT31;68596;52.080;4.662;2023-04-03T17:38:50;9.68;46.39
78315;SHT31;68596;52.080;4.662;2023-04-03T17:41:34;9.70;47.47
78315;SHT31;68596;52.080;4.662;2023-04-03T17:44:18;9.65;47.61
78315;SHT31;68596;52.080;4.662;2023-04-03T17:47:02;9.60;47.58
78315;SHT31;68596;52.080;4.662;2023-04-03T17:49:46;9.52;48.27
78315;SHT31;68596;52.080;4.662;2023-04-03T17:52:30;9.51;48.36
78315;SHT31;68596;52.080;4.662;2023-04-03T17:55:15;9.52;48.82
78315;SHT31;68596;52.080;4.662;2023-04-03T17:58:00;9.46;48.32
78315;SHT31;68596;52.080;4.662;2023-04-03T18:00:44;9.36;48.97
78315;SHT31;68596;52.080;4.662;2023-04-03T18:03:28;9.39;49.14
78315;SHT31;68596;52.080;4.662;2023-04-03T18:06:15;9.34;49.10
78315;SHT31;68596;52.080;4.662;2023-04-03T18:09:10;9.30;48.97
78315;SHT31;68596;52.080;4.662;2023-04-03T18:11:56;9.26;48.13
78315;SHT31;68596;52.080;4.662;2023-04-03T18:14:41;9.19;49.63
78315;SHT31;68596;52.080;4.662;2023-04-03T18:17:26;9.19;49.08
78315;SHT31;68596;52.080;4.662;2023-04-03T18:20:11;9.16;49.62
78315;SHT31;68596;52.080;4.662;2023-04-03T18:22:58;9.12;49.56
78315;SHT31;68596;52.080;4.662;2023-04-03T18:25:42;9.02;49.89
78315;SHT31;68596;52.080;4.662;2023-04-03T18:28:28;9.03;50.68
78315;SHT31;68596;52.080;4.662;2023-04-03T18:31:16;8.99;51.20
78315;SHT31;68596;52.080;4.662;2023-04-03T18:34:01;8.93;50.75
78315;SHT31;68596;52.080;4.662;2023-04-03T18:36:46;8.96;50.98
78315;SHT31;68596;52.080;4.662;2023-04-03T18:39:30;8.93;51.41
78315;SHT31;68596;52.080;4.662;2023-04-03T18:42:19;8.90;51.91
78315;SHT31;68596;52.080;4.662;2023-04-03T18:45:05;8.85;51.87
78315;SHT31;68596;52.080;4.662;2023-04-03T18:47:50;8.77;52.60
78315;SHT31;68596;52.080;4.662;2023-04-03T18:50:35;8.65;51.58
78315;SHT31;68596;52.080;4.662;2023-04-03T18:53:18;8.61;52.08
78315;SHT31;68596;52.080;4.662;2023-04-03T18:56:03;8.56;51.93
78315;SHT31;68596;52.080;4.662;2023-04-03T18:58:47;8.56;53.12
78315;SHT31;68596;52.080;4.662;2023-04-03T19:01:33;8.52;52.54
78315;SHT31;68596;52.080;4.662;2023-04-03T19:04:17;8.45;53.09